ADDS METAR Data INFO
IDs: Format: Raw Decoded Include TAF

Data at: 1504 UTC 23 Oct 2017

KCCY 231455Z AUTO 27008KT 10SM BKN110 09/04 A2983 RMK AO2
KCCY 231435Z AUTO 26006G11KT 10SM BKN100 09/04 A2983 RMK AO2
KCCY 231415Z AUTO 24005KT 10SM OVC110 09/05 A2983 RMK AO2
KCCY 231355Z AUTO 23006KT 10SM OVC110 09/05 A2985 RMK AO2
KCCY 231335Z AUTO 23009G15KT 10SM BKN110 09/04 A2985 RMK AO2
KCCY 231315Z AUTO 22007G12KT 10SM FEW110 08/04 A2984 RMK AO2
KCCY 231255Z AUTO 21007KT 10SM CLR 07/04 A2983 RMK AO2
KCCY 231235Z AUTO 19008G13KT 10SM CLR 08/04 A2983 RMK AO2
KCCY 231215Z AUTO 18009KT 10SM CLR 07/05 A2983 RMK AO2
KCCY 231155Z AUTO 16008KT 10SM CLR 07/05 A2984 RMK AO2
KCCY 231135Z AUTO 17009KT 10SM CLR 07/05 A2985 RMK AO2
KCCY 231115Z AUTO 17008KT 10SM CLR 06/05 A2986 RMK AO2
KCCY 231055Z AUTO 17007KT 10SM CLR 06/05 A2987 RMK AO2
KCCY 231035Z AUTO 16005KT 10SM FEW180 06/05 A2987 RMK AO2
KCCY 231015Z AUTO 18005KT 10SM FEW160 FEW180 06/05 A2989 RMK AO2
KCCY 230955Z AUTO 18007KT 10SM FEW160 SCT180 07/06 A2989 RMK AO2
KCCY 230935Z AUTO 18007KT 10SM SCT160 BKN180 07/06 A2989 RMK AO2
KCCY 230915Z AUTO 17007KT 10SM CLR 07/06 A2990 RMK AO2
KCCY 230855Z AUTO 17006KT 10SM CLR 07/06 A2991 RMK AO2
KCCY 230835Z AUTO 18007KT 10SM CLR 07/06 A2992 RMK AO2
KCCY 230815Z AUTO 18006KT 10SM SCT150 07/06 A2993 RMK AO2
KCCY 230755Z AUTO 18006KT 10SM OVC150 07/06 A2994 RMK AO2
KCCY 230735Z AUTO 17007KT 10SM SCT150 07/06 A2994 RMK AO2
KCCY 230715Z AUTO 17007KT 10SM CLR 07/06 A2995 RMK AO2
KCCY 230655Z AUTO 17006KT 10SM CLR 07/06 A2995 RMK AO2
KCCY 230635Z AUTO 17006KT 10SM CLR 07/06 A2996 RMK AO2
KCCY 230615Z AUTO 17006KT 10SM CLR 07/06 A2996 RMK AO2
KCCY 230555Z AUTO 17006KT 10SM CLR 07/07 A2997 RMK AO2
KCCY 230535Z AUTO 17007KT 10SM CLR 08/07 A2997 RMK AO2
KCCY 230515Z AUTO 16007KT 10SM CLR 08/07 A2998 RMK AO2
KCCY 230455Z AUTO 17007KT 10SM CLR 08/07 A2999 RMK AO2
KCCY 230435Z AUTO 16007KT 10SM CLR 08/07 A2999 RMK AO2
KCCY 230415Z AUTO 16007KT 10SM CLR 08/07 A3000 RMK AO2
KCCY 230355Z AUTO 17007KT 10SM CLR 08/07 A3000 RMK AO2
KCCY 230335Z AUTO 18007KT 10SM CLR 09/07 A3001 RMK AO2
KCCY 230315Z AUTO 17007KT 10SM CLR 09/07 A3001 RMK AO2
KCCY 230255Z AUTO 17007KT 10SM CLR 09/07 A3001 RMK AO2
KCCY 230235Z AUTO 17007G12KT 10SM CLR 09/07 A3002 RMK AO2
KCCY 230215Z AUTO 16007KT 10SM CLR 09/07 A3002 RMK AO2
KCCY 230155Z AUTO 16006KT 10SM CLR 09/07 A3002 RMK AO2
KCCY 230135Z AUTO 16006KT 10SM CLR 09/07 A3002 RMK AO2
KCCY 230115Z AUTO 16005KT 10SM CLR 10/06 A3002 RMK AO2
KCCY 230055Z AUTO 15007KT 10SM CLR 11/06 A3002 RMK AO2
KCCY 230035Z AUTO 15007KT 10SM CLR 11/04 A3002 RMK AO2
KCCY 230015Z AUTO 15006KT 9SM CLR 12/03 A3002 RMK AO2
KCCY 222355Z AUTO 16007KT 10SM CLR 12/03 A3002 RMK AO2
KCCY 222335Z AUTO 15007KT 10SM CLR 12/02 A3002 RMK AO2
KCCY 222315Z AUTO 23003KT 10SM CLR 14/M00 A3002 RMK AO2
KCCY 222255Z AUTO 24004KT 10SM CLR 16/M01 A3001 RMK AO2
KCCY 222235Z AUTO 28005KT 10SM CLR 17/M01 A3001 RMK AO2
KCCY 222215Z AUTO 31004KT 10SM CLR 18/M01 A3001 RMK AO2
KCCY 222155Z AUTO 28007KT 10SM CLR 18/M01 A3001 RMK AO2
KCCY 222135Z AUTO VRB04G10KT 10SM CLR 17/M01 A3001 RMK AO2
KCCY 222115Z AUTO 00000KT 10SM CLR 17/00 A3001 RMK AO2
KCCY 222055Z AUTO 28004G11KT 10SM CLR 16/00 A3001 RMK AO2
KCCY 222035Z AUTO VRB04KT 10SM CLR 16/M00 A3002 RMK AO2
KCCY 222015Z AUTO 30009KT 10SM CLR 17/00 A3003 RMK AO2
KCCY 221955Z AUTO 29005G12KT 10SM CLR 16/M00 A3003 RMK AO2
KCCY 221935Z AUTO VRB06G12KT 10SM CLR 16/01 A3003 RMK AO2
KCCY 221915Z AUTO 31008G14KT 10SM CLR 16/01 A3003 RMK AO2
KCCY 221855Z AUTO 31010KT 280V340 10SM CLR 16/02 A3003 RMK AO2
KCCY 221835Z AUTO 31008KT 10SM CLR 15/04 A3003 RMK AO2
KCCY 221815Z AUTO 29009KT 10SM CLR 14/05 A3003 RMK AO2
KCCY 221755Z AUTO 29005KT 10SM CLR 13/06 A3004 RMK AO2
KCCY 221735Z AUTO 30007KT 10SM CLR 13/07 A3004 RMK AO2
KCCY 221715Z AUTO 30007KT 10SM CLR 12/07 A3004 RMK AO2
KCCY 221655Z AUTO 30005KT 10SM CLR 11/07 A3005 RMK AO2
KCCY 221635Z AUTO 30007KT 10SM CLR 11/08 A3005 RMK AO2
KCCY 221615Z AUTO 30006G11KT 10SM CLR 10/08 A3004 RMK AO2
KCCY 221555Z AUTO 30007KT 10SM CLR 10/08 A3005 RMK AO2
KCCY 221535Z AUTO 29007KT 10SM CLR 10/08 A3004 RMK AO2
KCCY 221515Z AUTO 29006KT 10SM CLR 10/08 A3004 RMK AO2
KCCY 221455Z AUTO 29007KT 10/08 A3003 RMK AO2
KCCY 221435Z AUTO 30004KT 10SM CLR 10/08 A3002 RMK AO2
KCCY 221415Z AUTO 28004KT 10SM FEW120 10/08 A3002 RMK AO2
KCCY 221355Z AUTO 30006KT 10SM BKN110 10/09 A3001 RMK AO2
KCCY 221335Z AUTO 31004KT 10SM BKN110 10/09 A2999 RMK AO2
KCCY 221315Z AUTO 00000KT 10SM BKN100 09/09 A2999 RMK AO2
KCCY 221255Z AUTO 29005KT 10SM BKN100 09/08 A2999 RMK AO2
KCCY 221235Z AUTO 30005KT 10SM BKN090 BKN110 09/09 A2998 RMK AO2
KCCY 221215Z AUTO 29005KT 10SM SCT080 OVC090 09/09 A2998 RMK AO2
KCCY 221155Z AUTO 29004KT 10SM OVC085 09/09 A2998 RMK AO2
KCCY 221135Z AUTO 29005KT 10SM OVC080 09/09 A2997 RMK AO2
KCCY 221115Z AUTO 28005KT 10SM OVC080 10/09 A2998 RMK AO2
KCCY 221055Z AUTO 27005KT 10SM BKN090 BKN110 10/09 A2998 RMK AO2
KCCY 221035Z AUTO 27003KT 10SM FEW080 SCT100 SCT130 10/09 A2996 RMK AO2
KCCY 221015Z AUTO 28005KT 10SM BKN085 10/09 A2996 RMK AO2
KCCY 220955Z AUTO 28004KT 10SM OVC090 10/09 A2996 RMK AO2
KCCY 220935Z AUTO 27004KT 10SM OVC100 10/10 A2995 RMK AO2
KCCY 220915Z AUTO 27004KT 10SM OVC100 10/10 A2994 RMK AO2
KCCY 220855Z AUTO 00000KT 10SM BKN110 10/10 A2992 RMK AO2
KCCY 220835Z AUTO 30004KT 10SM SCT060 SCT080 BKN110 10/09 A2993 RMK AO2
KCCY 220815Z AUTO 31004KT 10SM FEW046 BKN060 OVC090 10/09 A2993 RMK AO2
KCCY 220755Z AUTO 30004KT 10SM FEW055 SCT065 OVC095 10/09 A2994 RMK AO2
KCCY 220735Z AUTO 31004KT 10SM FEW065 SCT075 BKN100 10/09 A2993 RMK AO2
KCCY 220715Z AUTO 31005KT 10SM BKN110 BKN130 10/09 A2993 RMK AO2
KCCY 220655Z AUTO 31006G11KT 10SM BKN120 BKN140 10/08 A2992 RMK AO2
KCCY 220635Z AUTO 31008G15KT 10SM BKN120 BKN140 11/08 A2991 RMK AO2
KCCY 220615Z AUTO 31012G18KT 10SM SCT075 SCT080 BKN110 11/09 A2989 RMK AO2
KCCY 220555Z AUTO 31009G15KT 10SM FEW013 SCT019 BKN027 11/10 A2990 RMK AO2
KCCY 220535Z AUTO 31007KT 10SM SCT013 BKN018 OVC075 12/12 A2990 RMK AO2
KCCY 220515Z AUTO 30006KT 10SM -RA SCT055 BKN065 OVC090 12/12 A2990 RMK AO2
KCCY 220455Z AUTO 30008G14KT 10SM -DZ FEW029 SCT060 BKN075 12/12 A2988 RMK AO2 P0010
KCCY 220435Z AUTO 31008G14KT 6SM RA BKN029 BKN055 OVC070 12/12 A2988 RMK AO2
KCCY 220415Z AUTO 28008KT 7SM RA BKN026 OVC030 13/13 A2990 RMK AO2
KCCY 220355Z AUTO 29008KT 9SM -RA FEW009 FEW012 OVC023 13/13 A2987 RMK AO2 P0011
KCCY 220335Z AUTO 28006G13KT 7SM RA FEW009 BKN019 OVC028 13/13 A2985 RMK AO2
KCCY 220315Z AUTO 30009G15KT 5SM RA FEW007 SCT012 BKN018 13/13 A2984 RMK AO2